Time;durP1;ratioP1;P1;durP2;ratioP2;P2;SDS_P1;SDS_P2;PMS_P1;PMS_P2;Temp;Humidity;BMP_temperature;BMP_pressure;BME280_temperature;BME280_humidity;BME280_pressure;Samples;Min_cycle;Max_cycle;Signal;HPM_P1;HPM_P2
2022/03/25 00:03:10;;;;;;;231.70;141.50;;;;;;;3.44;51.20;101551.89;109585;1264;22018;-77
2022/03/25 00:05:53;;;;;;;223.00;144.60;;;;;;;3.39;51.48;101552.01;109074;1268;22758;-76
2022/03/25 00:08:58;;;;;;;230.20;143.20;;;;;;;3.40;51.71;101552.32;108769;1273;23698;-75
2022/03/25 00:11:52;;;;;;;;;;;;;;;;;;;;;
2022/03/25 00:14:47;;;;;;;222.30;140.10;;;;;;;3.39;51.65;101545.59;109715;1260;21973;-76
2022/03/25 00:18:38;;;;;;;222.60;138.50;;;;;;;3.35;51.60;101544.42;109762;1260;22055;-75
2022/03/25 00:21:44;;;;;;;;;;;;;;;;;;;;;
2022/03/25 00:24:44;;;;;;;225.40;137.80;;;;;;;3.26;52.05;101542.19;109980;1260;21992;-76
2022/03/25 00:27:47;;;;;;;;;;;;;;;;;;;;;
2022/03/25 00:30:51;;;;;;;228.10;141.80;;;;;;;3.23;52.27;101537.85;110577;1254;23002;-77
2022/03/25 00:33:27;;;;;;;211.00;134.80;;;;;;;3.21;52.21;101535.36;110703;1254;21975;-77
2022/03/25 00:35:56;;;;;;;224.60;143.00;;;;;;;3.19;52.31;101534.43;110537;1254;21971;-77
2022/03/25 00:38:35;;;;;;;225.30;141.00;;;;;;;3.17;52.38;101531.77;109868;1260;22736;-76
2022/03/25 00:41:16;;;;;;;223.60;142.70;;;;;;;3.16;52.67;101531.13;110026;1260;21946;-76
2022/03/25 00:43:46;;;;;;;206.40;134.90;;;;;;;3.14;52.70;101533.30;110458;1256;22101;-75
2022/03/25 00:46:27;;;;;;;199.20;133.30;;;;;;;3.13;52.74;101533.70;110316;1257;21976;-76
2022/03/25 00:49:10;;;;;;;217.10;138.70;;;;;;;3.15;52.90;101535.89;110502;1254;21968;-77
2022/03/25 00:51:53;;;;;;;210.90;138.10;;;;;;;3.18;52.96;101532.56;110403;1257;21966;-77
2022/03/25 00:54:40;;;;;;;214.70;138.80;;;;;;;3.20;52.92;101526.52;110282;1255;21986;-77
2022/03/25 00:57:10;;;;;;;211.10;138.00;;;;;;;3.19;52.96;101524.47;110703;1250;21959;-76
2022/03/25 00:59:49;;;;;;;201.80;135.30;;;;;;;3.16;52.94;101526.91;110916;1251;23564;-76
2022/03/25 01:02:19;;;;;;;206.50;132.10;;;;;;;3.12;52.96;101524.36;110927;1251;21957;-76
2022/03/25 01:05:00;;;;;;;202.80;130.80;;;;;;;3.09;53.09;101526.34;110969;1251;23825;-78
2022/03/25 01:07:47;;;;;;;205.30;133.60;;;;;;;3.03;53.29;101528.54;110755;1250;21964;-77
2022/03/25 01:10:25;;;;;;;204.60;134.90;;;;;;;2.98;53.33;101526.42;110459;1257;21979;-77
2022/03/25 01:12:56;;;;;;;195.30;132.60;;;;;;;2.93;53.42;101524.64;110356;1257;21975;-77
2022/03/25 01:15:29;;;;;;;184.40;129.50;;;;;;;2.90;53.62;101523.77;110224;1254;22837;-76
2022/03/25 01:18:23;;;;;;;191.40;126.00;;;;;;;2.86;53.84;101522.59;110535;1254;22518;-77
2022/03/25 01:20:57;;;;;;;191.00;126.40;;;;;;;2.81;53.82;101521.84;109803;1260;23593;-76
2022/03/25 01:23:28;;;;;;;194.00;130.30;;;;;;;2.76;53.95;101522.80;109662;1260;21975;-76
2022/03/25 01:26:08;;;;;;;200.70;130.40;;;;;;;2.73;54.03;101522.84;109367;1260;23056;-76
2022/03/25 01:29:07;;;;;;;186.10;127.60;;;;;;;2.70;54.13;101520.43;109784;1259;23682;-76
2022/03/25 01:31:38;;;;;;;208.50;132.10;;;;;;;2.65;54.31;101521.91;109610;1262;21937;-76
2022/03/25 01:34:16;;;;;;;195.10;133.10;;;;;;;2.64;54.51;101525.66;109582;1263;21942;-77
2022/03/25 01:36:50;;;;;;;197.80;131.40;;;;;;;2.63;54.54;101526.38;109639;1262;21995;-77
2022/03/25 01:39:30;;;;;;;195.80;129.10;;;;;;;2.59;54.56;101528.52;109384;1262;23087;-77
2022/03/25 01:42:03;;;;;;;192.30;130.50;;;;;;;2.58;54.88;101527.17;109199;1268;24285;-76
2022/03/25 01:44:36;;;;;;;194.30;130.40;;;;;;;2.62;55.19;101525.91;109102;1268;22851;-77
2022/03/25 01:47:30;;;;;;;198.40;130.90;;;;;;;2.66;55.19;101523.25;109223;1267;22126;-76
2022/03/25 01:50:26;;;;;;;193.00;132.10;;;;;;;2.67;55.11;101521.99;109285;1267;24567;-76
2022/03/25 01:53:13;;;;;;;189.40;128.80;;;;;;;2.64;55.15;101519.54;108972;1268;23715;-76
2022/03/25 01:56:19;;;;;;;185.80;129.60;;;;;;;2.63;55.11;101517.73;109024;1268;22070;-76
2022/03/25 01:58:52;;;;;;;198.50;131.00;;;;;;;2.56;55.02;101517.69;108785;1270;22761;-77
2022/03/25 02:01:25;;;;;;;190.50;129.80;;;;;;;2.52;55.06;101520.75;109129;1267;22739;-77
2022/03/25 02:03:58;;;;;;;197.10;125.70;;;;;;;2.49;55.15;101521.10;109263;1267;23685;-76
2022/03/25 02:06:30;;;;;;;199.10;130.40;;;;;;;2.44;55.14;101524.15;108747;1270;22035;-77
2022/03/25 02:09:02;;;;;;;184.50;125.00;;;;;;;2.38;55.33;101521.02;108627;1270;22046;-76
2022/03/25 02:11:35;;;;;;;185.40;123.40;;;;;;;2.33;55.54;101521.13;108768;1270;24604;-76
2022/03/25 02:14:06;;;;;;;187.60;124.20;;;;;;;2.29;55.56;101520.64;108964;1267;23777;-77
2022/03/25 02:16:46;;;;;;;179.60;119.70;;;;;;;2.29;55.80;101520.62;108955;1269;21988;-76
2022/03/25 02:19:30;;;;;;;193.20;129.10;;;;;;;2.31;55.87;101522.61;109110;1270;22608;-77
2022/03/25 02:22:01;;;;;;;;;;;;;;;2.29;55.85;101522.38;108920;1269;23014;-77
2022/03/25 02:24:34;;;;;;;;;;;;;;;2.21;56.06;101524.26;108660;1270;22072;-76
2022/03/25 02:27:09;;;;;;;181.70;123.30;;;;;;;2.11;56.35;101523.86;108776;1273;24628;-77
2022/03/25 02:29:47;;;;;;;189.80;122.30;;;;;;;2.12;56.45;101522.27;108515;1273;21987;-76
2022/03/25 02:32:17;;;;;;;187.50;125.40;;;;;;;2.12;56.42;101521.75;108695;1273;23739;-77
2022/03/25 02:34:51;;;;;;;192.60;126.60;;;;;;;2.13;56.52;101523.14;108808;1270;22153;-77
2022/03/25 02:37:25;;;;;;;184.00;124.50;;;;;;;2.11;56.51;101523.91;109887;1262;23715;-76
2022/03/25 02:39:57;;;;;;;185.80;128.00;;;;;;;2.10;56.63;101526.73;109383;1261;21972;-76
2022/03/25 02:42:27;;;;;;;186.70;122.40;;;;;;;2.10;56.68;101528.12;108917;1268;22468;-76
2022/03/25 02:44:57;;;;;;;191.70;127.00;;;;;;;2.09;56.61;101530.64;109313;1263;22203;-77
2022/03/25 02:47:44;;;;;;;192.90;127.60;;;;;;;2.07;56.67;101535.40;109026;1270;23732;-76
2022/03/25 02:50:14;;;;;;;197.80;128.30;;;;;;;2.07;56.73;101528.45;109421;1264;23090;-76
2022/03/25 02:52:56;;;;;;;;;;;;;;;2.08;56.76;101525.81;109351;1263;21963;-76
2022/03/25 02:55:29;;;;;;;208.90;127.00;;;;;;;2.03;56.93;101525.18;109126;1267;23119;-77
2022/03/25 02:58:11;;;;;;;187.90;124.90;;;;;;;2.04;57.01;101524.80;108886;1267;22020;-76
2022/03/25 03:00:42;;;;;;;180.80;126.10;;;;;;;2.06;56.86;101524.85;109089;1267;22026;-77
2022/03/25 03:03:16;;;;;;;187.20;128.10;;;;;;;2.06;56.78;101520.86;108946;1267;21987;-76
2022/03/25 03:05:47;;;;;;;201.70;129.90;;;;;;;2.05;56.78;101523.73;109127;1260;23059;-77
2022/03/25 03:08:19;;;;;;;195.00;130.70;;;;;;;2.01;56.84;101526.17;110150;1254;22012;-76
2022/03/25 03:10:51;;;;;;;187.10;129.30;;;;;;;1.98;56.99;101531.05;110198;1257;23183;-76
2022/03/25 03:13:32;;;;;;;199.90;131.90;;;;;;;1.94;57.12;101533.02;109969;1259;22188;-77
2022/03/25 03:16:10;;;;;;;202.40;135.40;;;;;;;1.89;57.07;101531.16;109263;1267;21985;-78
2022/03/25 03:18:45;;;;;;;196.40;135.00;;;;;;;1.84;57.21;101528.48;109292;1264;23717;-78
2022/03/25 03:21:32;;;;;;;205.10;134.50;;;;;;;1.79;57.39;101529.27;109723;1260;21981;-76
2022/03/25 03:24:08;;;;;;;197.90;135.80;;;;;;;1.76;57.37;101524.08;109772;1261;21982;-77
2022/03/25 03:26:51;;;;;;;205.70;136.70;;;;;;;1.75;57.58;101522.57;109565;1261;23602;-76
2022/03/25 03:29:25;;;;;;;212.30;133.90;;;;;;;1.75;57.76;101518.93;108761;1267;23052;-76
2022/03/25 03:31:57;;;;;;;194.00;133.40;;;;;;;1.76;57.90;101524.95;108636;1270;21994;-77
2022/03/25 03:34:27;;;;;;;202.00;131.10;;;;;;;1.78;58.06;101525.66;108607;1270;23100;-76
2022/03/25 03:36:59;;;;;;;206.00;138.10;;;;;;;1.81;58.21;101525.67;108864;1267;22142;-77
2022/03/25 03:39:34;;;;;;;205.30;136.70;;;;;;;1.84;58.35;101523.81;108984;1267;21991;-77
2022/03/25 03:42:25;;;;;;;193.90;131.80;;;;;;;1.82;58.32;101522.54;108698;1273;21982;-77
2022/03/25 03:45:08;;;;;;;197.70;130.70;;;;;;;1.76;58.30;101522.85;108671;1273;21982;-78
2022/03/25 03:47:42;;;;;;;191.70;129.70;;;;;;;1.73;58.42;101523.56;108896;1267;23646;-76
2022/03/25 03:50:30;;;;;;;184.90;124.30;;;;;;;1.71;58.54;101528.65;108655;1269;23833;-77
2022/03/25 03:53:10;;;;;;;181.70;124.50;;;;;;;1.67;58.43;101530.98;108763;1270;23769;-77
2022/03/25 03:55:56;;;;;;;195.30;127.10;;;;;;;1.61;58.41;101532.35;108868;1270;21979;-76
2022/03/25 03:59:41;;;;;;;184.50;122.40;;;;;;;1.52;58.64;101537.86;108803;1267;22174;-76
2022/03/25 04:02:57;;;;;;;;;;;;;;;;;;;;;
2022/03/25 04:05:53;;;;;;;182.20;126.60;;;;;;;1.53;58.77;101536.60;109617;1261;21986;-77
2022/03/25 04:08:34;;;;;;;190.00;125.50;;;;;;;1.50;58.83;101535.00;109549;1256;23076;-77
2022/03/25 04:11:09;;;;;;;196.90;127.60;;;;;;;1.49;58.86;101531.94;110193;1257;23000;-77
2022/03/25 04:13:48;;;;;;;182.90;124.50;;;;;;;1.48;58.86;101531.84;110225;1256;23577;-77
2022/03/25 04:16:44;;;;;;;177.50;118.00;;;;;;;1.44;58.83;101527.51;110492;1253;23674;-77
2022/03/25 04:19:29;;;;;;;176.60;120.90;;;;;;;1.38;58.93;101525.88;110950;1250;24365;-77
2022/03/25 04:22:10;;;;;;;180.00;116.90;;;;;;;1.32;58.97;101521.36;110736;1250;21974;-76
2022/03/25 04:25:06;;;;;;;184.50;119.60;;;;;;;1.23;58.89;101524.77;110890;1249;23003;-76
2022/03/25 04:28:24;;;;;;;175.80;115.30;;;;;;;1.14;59.18;101521.95;110652;1253;23504;-75
2022/03/25 04:30:58;;;;;;;188.90;119.60;;;;;;;1.08;59.34;101526.05;108989;1267;22102;-76
2022/03/25 04:33:37;;;;;;;185.40;122.90;;;;;;;1.07;59.52;101527.01;108951;1267;21988;-77
2022/03/25 04:36:08;;;;;;;188.00;121.90;;;;;;;1.05;59.54;101522.58;108973;1268;22735;-76
2022/03/25 04:38:39;;;;;;;179.10;118.60;;;;;;;1.01;59.41;101525.38;109036;1267;23055;-76
2022/03/25 04:41:29;;;;;;;181.30;118.70;;;;;;;0.97;59.54;101527.16;108821;1270;22088;-76
2022/03/25 04:44:14;;;;;;;188.00;122.80;;;;;;;0.93;59.84;101526.27;108525;1273;21994;-79
2022/03/25 04:46:54;;;;;;;197.20;131.70;;;;;;;0.95;60.18;101527.73;108657;1274;22757;-77
2022/03/25 04:49:58;;;;;;;193.00;132.90;;;;;;;1.01;60.47;101526.92;108746;1268;23097;-75
2022/03/25 04:52:27;;;;;;;;;;;;;;;1.08;60.65;101526.05;108631;1276;22050;-77
2022/03/25 04:55:03;;;;;;;184.80;123.60;;;;;;;1.10;60.78;101525.27;108710;1273;21988;-77
2022/03/25 04:57:57;;;;;;;185.40;126.30;;;;;;;1.14;60.91;101527.46;108680;1272;23985;-77
2022/03/25 05:00:37;;;;;;;195.50;129.50;;;;;;;1.19;60.83;101526.17;108715;1270;23076;-77
2022/03/25 05:03:11;;;;;;;177.40;116.00;;;;;;;1.25;60.81;101527.28;108764;1273;23794;-77
2022/03/25 05:06:05;;;;;;;180.00;116.90;;;;;;;1.26;60.61;101527.91;108424;1273;22052;-76
2022/03/25 05:09:13;;;;;;;181.50;117.30;;;;;;;1.21;60.42;101529.05;108306;1276;23142;-76
2022/03/25 05:12:25;;;;;;;189.40;117.50;;;;;;;1.10;60.37;101533.92;108085;1282;22015;-77
2022/03/25 05:15:43;;;;;;;172.30;119.80;;;;;;;1.07;60.56;101537.08;108064;1282;22378;-77
2022/03/25 05:18:19;;;;;;;183.60;116.90;;;;;;;1.11;60.88;101538.23;108086;1282;21993;-77
2022/03/25 05:21:32;;;;;;;186.80;119.40;;;;;;;1.19;61.14;101535.91;108177;1276;22011;-77
2022/03/25 05:24:22;;;;;;;175.90;121.40;;;;;;;1.29;61.08;101536.78;108433;1273;23611;-76
2022/03/25 05:27:33;;;;;;;201.60;122.80;;;;;;;1.40;61.04;101536.75;108534;1273;22005;-76
2022/03/25 05:30:49;;;;;;;;;;;;;;;;;;;;;
2022/03/25 05:33:48;;;;;;;200.70;127.30;;;;;;;1.56;60.90;101544.25;108818;1271;23158;-77
2022/03/25 05:37:22;;;;;;;;;;;;;;;;;;;;;
2022/03/25 05:40:29;;;;;;;256.20;136.60;;;;;;;1.59;60.56;101544.05;108013;1282;22001;-76
2022/03/25 05:43:16;;;;;;;200.00;126.10;;;;;;;1.62;60.67;101546.36;107918;1284;22015;-77
2022/03/25 05:45:56;;;;;;;;;;;;;;;;;;;;;
2022/03/25 05:48:59;;;;;;;214.70;132.10;;;;;;;1.75;60.67;101553.83;108020;1277;22063;-76
2022/03/25 05:51:37;;;;;;;189.70;124.20;;;;;;;1.85;60.68;101555.75;108514;1274;22114;-77
2022/03/25 05:54:34;;;;;;;183.30;124.60;;;;;;;1.92;60.36;101561.25;108507;1274;24318;-77
2022/03/25 05:57:34;;;;;;;193.60;125.30;;;;;;;1.99;60.29;101560.35;108133;1280;22763;-77
2022/03/25 06:00:41;;;;;;;;;;;;;;;;;;;;;
2022/03/25 06:03:54;;;;;;;197.20;126.30;;;;;;;2.26;60.43;101565.66;108044;1282;21996;-77
2022/03/25 06:07:03;;;;;;;;;;;;;;;;;;;;;
2022/03/25 06:10:01;;;;;;;195.20;130.40;;;;;;;2.44;60.03;101568.14;108380;1276;22010;-77
2022/03/25 06:12:58;;;;;;;179.80;126.00;;;;;;;2.55;59.97;101575.14;108513;1275;22055;-77
2022/03/25 06:15:50;;;;;;;184.40;123.20;;;;;;;2.67;59.97;101573.13;108467;1276;21982;-77
2022/03/25 06:18:59;;;;;;;183.60;125.80;;;;;;;2.79;59.88;101574.65;108796;1268;22071;-77
2022/03/25 06:21:56;;;;;;;195.40;128.40;;;;;;;2.93;59.81;101574.20;108907;1267;21976;-77
2022/03/25 06:24:34;;;;;;;191.10;128.20;;;;;;;3.13;59.86;101574.77;108977;1270;22983;-77
2022/03/25 06:27:25;;;;;;;177.80;123.20;;;;;;;3.40;59.87;101573.73;109178;1270;23725;-78
2022/03/25 06:30:20;;;;;;;182.50;125.20;;;;;;;3.66;59.62;101572.66;108664;1273;23616;-76
2022/03/25 06:33:06;;;;;;;185.80;127.90;;;;;;;3.90;59.13;101572.63;108740;1273;22289;-77
2022/03/25 06:36:13;;;;;;;185.00;127.30;;;;;;;4.28;59.65;101570.77;109328;1265;23617;-76
2022/03/25 06:39:09;;;;;;;178.30;125.60;;;;;;;4.82;60.08;101572.13;109658;1261;24420;-77
2022/03/25 06:41:57;;;;;;;;;;;;;;;;;;;;;
2022/03/25 06:44:49;;;;;;;;;;;;;;;;;;;;;
2022/03/25 06:47:47;;;;;;;192.00;129.40;;;;;;;6.48;57.25;101577.30;109620;1259;23736;-78
2022/03/25 06:50:45;;;;;;;187.80;132.10;;;;;;;7.10;56.59;101578.19;109978;1257;21992;-77
2022/03/25 06:53:35;;;;;;;194.70;133.20;;;;;;;7.65;55.08;101579.41;110421;1256;23013;-78
2022/03/25 06:57:16;;;;;;;;;;;;;;;;;;;;;
2022/03/25 07:00:28;;;;;;;147.90;105.00;;;;;;;8.76;51.89;101590.75;110357;1256;21963;-77
2022/03/25 07:03:03;;;;;;;126.90;96.70;;;;;;;9.32;51.20;101587.40;110092;1256;22100;-78
2022/03/25 07:06:27;;;;;;;124.70;94.40;;;;;;;9.85;49.71;101585.80;109950;1258;22149;-79
2022/03/25 07:09:48;;;;;;;111.00;85.20;;;;;;;10.40;47.93;101593.70;109660;1261;22925;-78
2022/03/25 07:13:16;;;;;;;;;;;;;;;;;;;;;
2022/03/25 07:16:12;;;;;;;104.70;82.70;;;;;;;11.64;45.25;101599.86;109574;1262;21988;-79
2022/03/25 07:18:59;;;;;;;;;;;;;;;;;;;;;
2022/03/25 07:21:38;;;;;;;99.00;80.10;;;;;;;12.44;42.63;101606.33;109869;1261;23137;-79
2022/03/25 07:24:20;;;;;;;110.50;82.10;;;;;;;12.87;41.88;101602.83;108944;1267;23636;-78
2022/03/25 07:26:50;;;;;;;95.70;77.90;;;;;;;13.28;40.71;101606.00;109011;1267;22431;-79
2022/03/25 07:29:36;;;;;;;104.20;77.80;;;;;;;13.55;38.74;101607.48;108585;1273;21986;-79
2022/03/25 07:32:08;;;;;;;98.10;79.10;;;;;;;13.77;38.14;101613.39;108915;1268;23040;-78
2022/03/25 07:34:38;;;;;;;106.30;82.00;;;;;;;14.04;37.34;101615.03;109204;1267;21991;-76
2022/03/25 07:37:09;;;;;;;102.60;80.90;;;;;;;14.35;37.07;101617.26;108880;1267;21979;-77
2022/03/25 07:39:47;;;;;;;102.30;83.00;;;;;;;14.65;36.26;101624.91;108721;1270;22203;-79
2022/03/25 07:42:25;;;;;;;;;;;;;;;14.93;35.47;101623.51;108816;1270;21983;-79
2022/03/25 07:45:01;;;;;;;92.90;73.40;;;;;;;15.10;34.90;101624.69;108771;1270;21993;-80
2022/03/25 07:48:18;;;;;;;93.00;70.70;;;;;;;15.30;33.97;101624.73;109619;1260;23650;-79
2022/03/25 07:51:07;;;;;;;;;;;;;;;;;;;;;
2022/03/25 07:54:03;;;;;;;81.10;71.50;;;;;;;15.51;33.21;101628.02;109822;1260;22084;-77
2022/03/25 07:57:59;;;;;;;74.70;62.40;;;;;;;15.85;32.66;101630.73;109086;1267;23067;-77
2022/03/25 08:01:02;;;;;;;73.00;63.00;;;;;;;16.18;31.66;101628.10;108839;1267;23779;-76
2022/03/25 08:03:36;;;;;;;88.00;62.50;;;;;;;16.47;31.34;101629.54;108748;1267;22195;-75
2022/03/25 08:06:15;;;;;;;78.50;67.60;;;;;;;16.73;30.61;101630.54;109050;1267;21986;-76
2022/03/25 08:09:06;;;;;;;79.20;64.30;;;;;;;16.98;30.21;101629.20;109184;1267;22056;-78
2022/03/25 08:12:04;;;;;;;;;;;;;;;;;;;;;
2022/03/25 08:15:25;;;;;;;69.10;59.20;;;;;;;17.41;28.96;101627.77;108959;1263;22030;-76
2022/03/25 08:19:32;;;;;;;;;;;;;;;;;;;;;
2022/03/25 08:27:58;;;;;;;63.00;56.30;;;;;;;17.85;27.21;101630.85;108891;1269;23697;-77
2022/03/25 08:32:29;;;;;;;;;;;;;;;;;;;;;
2022/03/25 08:36:06;;;;;;;70.10;53.00;;;;;;;18.61;26.89;101633.16;108772;1273;22056;-76
2022/03/25 08:39:41;;;;;;;67.50;54.20;;;;;;;18.89;26.79;101636.89;108564;1275;23690;-75
2022/03/25 08:43:07;;;;;;;;;;;;;;;;;;;;;
2022/03/25 08:46:11;;;;;;;56.10;50.00;;;;;;;19.85;25.50;101634.73;108439;1276;23777;-84
2022/03/25 08:49:41;;;;;;;61.80;54.90;;;;;;;20.12;24.79;101635.42;108972;1274;21977;-84
2022/03/25 08:53:48;;;;;;;;;;;;;;;;;;;;;
2022/03/25 08:57:02;;;;;;;58.80;52.30;;;;;;;20.68;23.99;101638.02;109036;1276;23858;-83
2022/03/25 09:00:19;;;;;;;54.90;48.70;;;;;;;20.98;23.27;101637.51;108948;1276;23074;-82
2022/03/25 09:03:38;;;;;;;57.50;50.70;;;;;;;21.12;23.04;101635.24;109325;1266;21992;-83
2022/03/25 09:06:50;;;;;;;59.70;52.50;;;;;;;21.23;22.98;101636.94;109494;1265;22861;-81
2022/03/25 09:11:16;;;;;;;;;;;;;;;;;;;;;
2022/03/25 09:14:28;;;;;;;53.00;47.20;;;;;;;21.53;22.05;101635.95;108813;1279;22002;-81
2022/03/25 09:17:31;;;;;;;54.70;48.40;;;;;;;21.79;22.40;101635.94;108693;1276;22294;-81
2022/03/25 09:21:25;;;;;;;;;;;;;;;;;;;;;
2022/03/25 09:24:38;;;;;;;40.90;35.20;;;;;;;22.66;21.73;101637.38;110089;1263;23592;-83
2022/03/25 09:28:09;;;;;;;37.80;33.80;;;;;;;22.82;21.44;101636.03;110028;1259;22430;-81
2022/03/25 09:31:45;;;;;;;39.40;32.90;;;;;;;22.94;21.35;101640.23;110385;1259;21969;-82
2022/03/25 09:39:00;;;;;;;42.20;34.40;;;;;;;23.10;21.26;101641.36;111063;1259;22591;-81
2022/03/25 09:42:44;;;;;;;38.50;32.80;;;;;;;23.28;21.08;101641.50;111294;1259;21965;-85
2022/03/25 09:46:12;;;;;;;41.30;32.10;;;;;;;23.34;20.79;101638.64;110229;1259;22037;-81
2022/03/25 09:49:18;;;;;;;37.60;31.20;;;;;;;23.42;20.79;101636.58;109541;1263;22878;-80
2022/03/25 09:52:43;;;;;;;;;;;;;;;;;;;;;
2022/03/25 09:56:28;;;;;;;;;;;;;;;;;;;;;
2022/03/25 10:00:08;;;;;;;;;;;;;;;;;;;;;
2022/03/25 10:03:20;;;;;;;34.10;28.60;;;;;;;25.01;19.07;101630.64;109640;1261;23032;-79
2022/03/25 10:06:59;;;;;;;;;;;;;;;;;;;;;
2022/03/25 10:10:15;;;;;;;28.20;23.90;;;;;;;25.79;18.43;101636.12;110306;1261;22551;-81
2022/03/25 10:13:59;;;;;;;;;;;;;;;;;;;;;
2022/03/25 10:16:59;;;;;;;;;;;;;;;;;;;;;
2022/03/25 10:20:20;;;;;;;28.10;21.40;;;;;;;27.45;16.60;101635.23;109001;1274;22315;-82
2022/03/25 10:23:40;;;;;;;26.70;20.10;;;;;;;28.01;16.07;101634.16;109081;1265;21986;-81
2022/03/25 10:26:52;;;;;;;28.60;22.00;;;;;;;28.52;15.42;101635.85;109295;1270;23611;-81
2022/03/25 10:30:08;;;;;;;26.70;20.30;;;;;;;29.02;15.07;101630.88;109226;1270;23002;-79
2022/03/25 10:33:21;;;;;;;26.10;20.10;;;;;;;29.44;14.51;101628.61;109503;1267;22071;-79
2022/03/25 10:36:30;;;;;;;;;;;;;;;;;;;;;
2022/03/25 10:40:13;;;;;;;;;;;;;;;;;;;;;
2022/03/25 10:43:10;;;;;;;30.90;22.90;;;;;;;30.45;13.49;101612.93;109982;1261;22785;-80
2022/03/25 10:46:34;;;;;;;27.90;21.00;;;;;;;30.83;13.14;101614.77;109925;1260;22029;-80
2022/03/25 10:49:43;;;;;;;33.50;22.50;;;;;;;31.18;12.79;101611.46;109540;1260;22748;-79
2022/03/25 10:53:35;;;;;;;;;;;;;;;;;;;;;
2022/03/25 10:56:50;;;;;;;23.50;20.90;;;;;;;31.09;12.65;101606.79;109433;1263;21976;-78
2022/03/25 11:00:10;;;;;;;;;;;;;;;;;;;;;
2022/03/25 11:02:56;;;;;;;24.80;19.50;;;;;;;30.55;12.08;101599.61;109569;1263;22017;-80
2022/03/25 11:05:37;;;;;;;26.30;19.30;;;;;;;29.20;12.14;101596.95;110143;1260;22158;-81
2022/03/25 11:08:53;;;;;;;19.80;17.00;;;;;;;27.64;13.11;101594.48;110624;1257;23432;-81
2022/03/25 11:12:01;;;;;;;25.90;18.20;;;;;;;26.16;13.74;101591.83;110502;1258;22008;-79
2022/03/25 11:14:38;;;;;;;20.80;17.10;;;;;;;25.09;14.08;101584.92;110525;1257;22044;-81
2022/03/25 11:17:59;;;;;;;18.00;14.90;;;;;;;23.71;14.60;101584.95;110602;1257;23043;-79
2022/03/25 11:21:15;;;;;;;;;;;;;;;;;;;;;
2022/03/25 11:24:38;;;;;;;22.70;17.70;;;;;;;21.59;15.62;101577.83;110488;1257;21970;-80
2022/03/25 11:27:45;;;;;;;24.10;18.70;;;;;;;20.73;16.41;101578.38;110527;1256;21934;-79
2022/03/25 11:31:35;;;;;;;;;;;;;;;;;;;;;
2022/03/25 11:35:34;;;;;;;;;;;;;;;;;;;;;
2022/03/25 11:39:35;;;;;;;;;;;;;;;;;;;;;
2022/03/25 11:42:55;;;;;;;;;;;;;;;;;;;;;
2022/03/25 11:46:28;;;;;;;;;;;;;;;;;;;;;
2022/03/25 11:49:53;;;;;;;31.40;21.30;;;;;;;17.94;19.85;101563.89;109897;1262;21993;-79
2022/03/25 11:52:41;;;;;;;29.60;20.80;;;;;;;17.76;20.18;101559.08;109995;1262;22718;-80
2022/03/25 11:56:16;;;;;;;27.50;20.10;;;;;;;17.54;20.65;101556.34;109498;1267;22053;-80
2022/03/25 11:59:21;;;;;;;39.50;20.10;;;;;;;17.38;20.95;101552.24;109211;1270;22002;-81
2022/03/25 12:03:17;;;;;;;;;;;;;;;;;;;;;
2022/03/25 12:06:56;;;;;;;27.40;17.30;;;;;;;17.14;20.87;101554.35;108916;1270;22011;-79
2022/03/25 12:11:16;;;;;;;;;;;;;;;;;;;;;
2022/03/25 12:14:30;;;;;;;;;;;;;;;;;;;;;
2022/03/25 12:17:42;;;;;;;25.20;17.50;;;;;;;16.83;20.84;101547.33;109839;1260;23675;-79
2022/03/25 12:20:53;;;;;;;31.80;19.30;;;;;;;16.76;21.23;101549.98;109847;1261;22752;-79
2022/03/25 12:23:58;;;;;;;29.70;17.80;;;;;;;16.73;21.30;101545.52;109737;1263;21978;-81
2022/03/25 12:27:05;;;;;;;29.10;19.00;;;;;;;16.69;21.10;101544.67;109303;1267;21979;-79
2022/03/25 12:30:17;;;;;;;23.90;19.20;;;;;;;16.68;20.88;101539.27;109507;1267;23612;-84
2022/03/25 12:34:05;;;;;;;;;;;;;;;;;;;;;
2022/03/25 12:47:17;;;;;;;;;;;;;;;;;;;;;
2022/03/25 12:51:42;;;;;;;19.30;15.80;;;;;;;16.20;20.61;101516.73;110179;1269;23685;-88
2022/03/25 12:56:07;;;;;;;;;;;;;;;;;;;;;
2022/03/25 13:19:25;;;;;;;18.70;13.80;;;;;;;16.65;18.09;101501.54;109106;1286;22013;-86
2022/03/25 13:24:04;;;;;;;;;;;;;;;;;;;;;
2022/03/25 13:30:55;;;;;;;20.00;14.20;;;;;;;16.15;18.67;101486.91;105985;1312;22067;-86
2022/03/25 13:34:28;;;;;;;17.20;12.80;;;;;;;16.15;18.89;101474.35;105824;1315;22468;-86
2022/03/25 13:37:10;;;;;;;23.90;14.60;;;;;;;16.12;18.90;101477.46;105647;1315;21916;-85
2022/03/25 13:39:47;;;;;;;21.70;16.10;;;;;;;16.08;18.96;101481.05;105420;1315;22166;-85
2022/03/25 13:43:52;;;;;;;19.80;14.20;;;;;;;16.04;19.24;101483.42;105660;1315;23078;-85
2022/03/25 13:46:34;;;;;;;;;;;;;;;;;;;;;
2022/03/25 13:53:03;;;;;;;;;;;;;;;;;;;;;
2022/03/25 13:57:04;;;;;;;28.20;16.00;;;;;;;15.82;20.28;101467.45;105847;1315;22072;-87
2022/03/25 14:01:13;;;;;;;;;;;;;;;;;;;;;
2022/03/25 14:15:25;;;;;;;26.30;16.40;;;;;;;16.82;21.67;101456.36;108119;1289;548769;-86
2022/03/25 14:19:07;;;;;;;28.00;18.00;;;;;;;16.78;22.29;101453.09;105138;1270;22013;-86
2022/03/25 14:23:14;;;;;;;;;;;;;;;;;;;;;
2022/03/25 14:26:59;;;;;;;;;;;;;;;;;;;;;
2022/03/25 14:31:07;;;;;;;26.50;19.00;;;;;;;15.88;23.97;101442.77;110246;1262;22131;-87
2022/03/25 14:34:40;;;;;;;;;;;;;;;;;;;;;
2022/03/25 14:38:00;;;;;;;25.40;18.00;;;;;;;15.73;24.84;101442.33;110551;1260;22105;-85
2022/03/25 14:41:27;;;;;;;27.60;19.50;;;;;;;15.67;24.88;101444.52;110323;1259;21942;-85
2022/03/25 14:45:03;;;;;;;29.80;20.20;;;;;;;15.58;25.08;101439.58;110370;1260;21990;-86
2022/03/25 14:51:35;;;;;;;;;;;;;;;;;;;;;
2022/03/25 14:54:44;;;;;;;29.00;24.40;;;;;;;15.41;25.96;101441.02;109785;1259;21993;-85
2022/03/25 14:57:54;;;;;;;;;;;;;;;;;;;;;
2022/03/25 15:01:38;;;;;;;40.00;28.80;;;;;;;15.36;26.79;101439.48;110153;1264;22457;-87
2022/03/25 15:05:00;;;;;;;30.10;26.40;;;;;;;15.39;26.89;101435.95;109908;1267;21960;-88
2022/03/25 15:09:17;;;;;;;;;;;;;;;;;;;;;
2022/03/25 15:12:49;;;;;;;;;;;;;;;;;;;;;
2022/03/25 15:16:30;;;;;;;;;;;;;;;;;;;;;
2022/03/25 15:19:32;;;;;;;40.10;29.50;;;;;;;15.20;27.29;101426.17;109474;1270;22113;-86
2022/03/25 15:23:33;;;;;;;35.60;30.30;;;;;;;15.18;27.38;101425.49;109341;1274;23355;-87
2022/03/25 15:26:51;;;;;;;36.60;29.40;;;;;;;15.12;27.46;101427.59;109283;1276;23727;-85
2022/03/25 15:35:05;;;;;;;34.60;28.40;;;;;;;15.03;27.80;101426.70;109315;1276;23079;-85
2022/03/25 15:57:14;;;;;;;37.90;32.30;;;;;;;14.84;29.49;101419.70;110278;1267;21979;-87
2022/03/25 16:01:42;;;;;;;35.90;30.10;;;;;;;14.79;29.64;101419.71;109797;1270;23215;-85
2022/03/25 16:04:48;;;;;;;;;;;;;;;;;;;;;
2022/03/25 16:08:22;;;;;;;;;;;;;;;;;;;;;
2022/03/25 16:11:38;;;;;;;38.40;28.60;;;;;;;14.65;30.19;101408.97;108859;1285;23028;-85
2022/03/25 16:15:30;;;;;;;36.20;31.90;;;;;;;14.61;30.12;101406.95;108531;1288;22017;-86
2022/03/25 16:18:56;;;;;;;;;;;;;;;;;;;;;
2022/03/25 16:23:02;;;;;;;33.90;27.90;;;;;;;14.50;30.07;101404.79;110890;1260;22000;-87
2022/03/25 16:26:52;;;;;;;36.90;25.20;;;;;;;14.40;30.10;101392.55;99170;1266;21966;-87
2022/03/25 16:30:37;;;;;;;;;;;;;;;;;;;;;
2022/03/25 16:34:17;;;;;;;;;;;;;;;;;;;;;
2022/03/25 16:37:29;;;;;;;65.80;42.10;;;;;;;14.25;30.83;101384.95;109967;1279;21931;-86
2022/03/25 16:41:24;;;;;;;;;;;;;;;;;;;;;
2022/03/25 16:46:14;;;;;;;37.20;31.70;;;;;;;14.06;31.67;101395.66;109548;1290;21815;-87
2022/03/25 16:49:03;;;;;;;44.20;34.40;;;;;;;13.96;31.86;101391.88;110961;1264;21946;-87
2022/03/25 16:52:30;;;;;;;41.40;31.50;;;;;;;13.89;31.98;101395.71;110356;1260;21947;-86
2022/03/25 16:55:56;;;;;;;40.10;32.00;;;;;;;13.83;32.08;101396.70;111365;1261;21984;-86